This is the latest recevied weather packets stored in our database for station/object KA7KDX-4. If no packets are shown the sender has not sent any weather packets the latest 1 day(s).
| Time | Temp. | Humidity | Pressure | Rain* | Wind** | Luminosity | Snow |
|---|---|---|---|---|---|---|---|
| 1777988405 | 11.11° C | 55% | 1006.4 hPa | 0 mm | 5.36 m/s, 186° | - | - |
| 1777988106 | 11.11° C | 59% | 1006.4 hPa | 0 mm | 4.92 m/s, 189° | - | - |
| 1777987806 | 11.11° C | 60% | 1006.5 hPa | 0 mm | 5.36 m/s, 191° | - | - |
| 1777987506 | 11.11° C | 63% | 1006.6 hPa | 0 mm | 4.92 m/s, 187° | - | - |
| 1777987206 | 11.11° C | 63% | 1006.5 hPa | 0.25 mm | 4.47 m/s, 188° | - | - |
| 1777986905 | 11.67° C | 58% | 1006.1 hPa | 0.25 mm | 4.92 m/s, 190° | - | - |
| 1777986605 | 12.22° C | 54% | 1005.7 hPa | 0.25 mm | 4.02 m/s, 197° | - | - |
| 1777986305 | 12.78° C | 51% | 1005.4 hPa | 0.25 mm | 4.02 m/s, 204° | - | - |
| 1777986006 | 12.78° C | 49% | 1005.1 hPa | 0 mm | 5.36 m/s, 195° | - | - |
| 1777985705 | 12.78° C | 51% | 1005 hPa | 0 mm | 4.92 m/s, 188° | - | - |
| 1777985405 | 12.78° C | 54% | 1005.1 hPa | 0 mm | 4.47 m/s, 192° | - | - |
| 1777985106 | 12.78° C | 56% | 1005.1 hPa | 0 mm | 4.02 m/s, 191° | - | - |
| 1777984806 | 12.78° C | 55% | 1005 hPa | 0 mm | 4.47 m/s, 195° | - | - |
| 1777984506 | 12.78° C | 56% | 1005 hPa | 0 mm | 4.47 m/s, 191° | - | - |
| 1777984205 | 12.78° C | 56% | 1005 hPa | 0 mm | 4.47 m/s, 187° | - | - |
| 1777983905 | 12.78° C | 59% | 1005.1 hPa | 0 mm | 4.02 m/s, 186° | - | - |
| 1777983605 | 12.78° C | 59% | 1005.1 hPa | 0 mm | 3.58 m/s, 188° | - | - |
| 1777983305 | 12.22° C | 62% | 1005.3 hPa | 0 mm | 4.47 m/s, 181° | - | - |
| 1777983015 | 11.67° C | 66% | 1005.6 hPa | 0 mm | 4.02 m/s, 185° | - | - |
| 1777982705 | 11.67° C | 69% | 1005.8 hPa | 0 mm | 2.68 m/s, 204° | - | - |
| 1777982406 | 11.67° C | 69% | 1005.8 hPa | 0 mm | 2.68 m/s, 205° | - | - |
| 1777982106 | 11.67° C | 68% | 1005.8 hPa | 0 mm | 2.68 m/s, 202° | - | - |
| 1777981806 | 11.67° C | 67% | 1005.7 hPa | 0 mm | 2.68 m/s, 201° | - | - |
| 1777981505 | 12.22° C | 66% | 1005.6 hPa | 0 mm | 2.68 m/s, 210° | - | - |
| 1777981205 | 12.22° C | 63% | 1005.4 hPa | 0 mm | 3.13 m/s, 216° | - | - |
* Rain latest hour (hover to see other rain measurements)
** Current wind speed in m/s (hover to see current wind gust speed)